createdAt,value
2019-03-31T00:00:36.212Z,6.10
2019-03-31T00:03:04.037Z,6.07
2019-03-31T00:05:31.876Z,6.50
2019-03-31T00:07:59.717Z,6.53
2019-03-31T00:10:27.435Z,6.90
2019-03-31T00:12:55.997Z,5.43
2019-03-31T00:15:23.781Z,6.67
2019-03-31T00:17:57.785Z,6.37
2019-03-31T00:20:25.930Z,7.57
2019-03-31T00:22:53.631Z,7.50
2019-03-31T00:25:21.367Z,7.05
2019-03-31T00:27:49.133Z,7.80
2019-03-31T00:30:16.807Z,6.93
2019-03-31T00:32:44.615Z,7.37
2019-03-31T00:35:12.518Z,8.47
2019-03-31T00:37:39.947Z,8.30
2019-03-31T00:40:07.687Z,8.23
2019-03-31T00:42:35.911Z,7.47
2019-03-31T00:45:04.317Z,8.15
2019-03-31T00:47:31.949Z,7.78
2019-03-31T00:49:59.881Z,8.75
2019-03-31T00:52:28.965Z,7.45
2019-03-31T00:54:57.294Z,8.50
2019-03-31T00:57:25.441Z,8.23
2019-03-31T00:59:52.839Z,8.05
2019-03-31T01:02:24.329Z,8.50
2019-03-31T01:04:51.962Z,7.85
2019-03-31T01:07:23.224Z,6.28
2019-03-31T01:09:52.340Z,6.47
2019-03-31T01:12:20.118Z,7.30
2019-03-31T01:14:47.867Z,6.58
2019-03-31T01:17:18.888Z,6.25
2019-03-31T01:19:46.221Z,7.13
2019-03-31T01:22:13.925Z,6.47
2019-03-31T01:24:41.593Z,7.30
2019-03-31T01:27:10.352Z,11.15
2019-03-31T01:29:38.170Z,6.70
2019-03-31T01:32:05.781Z,7.30
2019-03-31T01:34:33.841Z,6.90
2019-03-31T01:37:01.750Z,10.82
2019-03-31T01:39:31.143Z,7.70
2019-03-31T01:41:59.056Z,6.80
2019-03-31T01:44:26.892Z,6.60
2019-03-31T01:46:54.978Z,6.45
2019-03-31T01:49:22.852Z,6.25
2019-03-31T01:51:50.762Z,5.80
2019-03-31T01:54:18.434Z,6.92
2019-03-31T01:56:46.528Z,6.15
2019-03-31T01:59:14.412Z,6.80
2019-03-31T02:01:41.989Z,5.72
2019-03-31T02:04:09.892Z,7.55
2019-03-31T02:06:38.266Z,7.15
2019-03-31T02:09:06.846Z,6.58
2019-03-31T02:11:34.960Z,7.67
2019-03-31T02:14:02.868Z,6.25
2019-03-31T02:16:33.632Z,7.90
2019-03-31T02:19:02.001Z,7.10
2019-03-31T02:21:29.795Z,7.20
2019-03-31T02:24:00.727Z,6.87
2019-03-31T02:26:28.268Z,6.95
2019-03-31T02:28:56.063Z,7.40
2019-03-31T02:31:23.600Z,7.62
2019-03-31T02:34:09.249Z,6.28
2019-03-31T02:36:36.807Z,7.92
2019-03-31T02:39:05.303Z,6.47
2019-03-31T02:41:33.381Z,5.62
2019-03-31T02:44:01.274Z,6.90
2019-03-31T02:46:28.876Z,6.37
2019-03-31T02:48:57.144Z,6.58
2019-03-31T02:51:25.074Z,7.58
2019-03-31T02:53:53.075Z,6.75
2019-03-31T02:56:21.875Z,8.48
2019-03-31T02:58:50.437Z,7.92
2019-03-31T03:01:20.920Z,7.72
2019-03-31T03:03:49.859Z,7.87
2019-03-31T03:06:19.901Z,8.65
2019-03-31T03:08:49.101Z,7.33
2019-03-31T03:11:17.737Z,6.92
2019-03-31T03:13:48.535Z,7.17
2019-03-31T03:16:17.845Z,6.67
2019-03-31T03:18:47.136Z,8.48
2019-03-31T03:21:15.479Z,6.80
2019-03-31T03:23:43.130Z,8.13
2019-03-31T03:26:10.873Z,7.45
2019-03-31T03:28:38.502Z,7.60
2019-03-31T03:31:14.007Z,8.60
2019-03-31T03:33:35.831Z,7.12
2019-03-31T03:36:04.011Z,7.60
2019-03-31T03:38:31.473Z,8.68
2019-03-31T03:40:59.406Z,8.28
2019-03-31T03:43:27.195Z,11.78
2019-03-31T03:45:54.738Z,7.85
2019-03-31T03:48:22.855Z,7.12
2019-03-31T03:50:54.035Z,7.62
2019-03-31T03:53:21.717Z,7.42
2019-03-31T03:55:49.878Z,8.15
2019-03-31T03:58:17.977Z,8.23
2019-03-31T04:00:45.928Z,8.20
2019-03-31T04:03:29.073Z,7.45
2019-03-31T04:05:43.292Z,8.68
2019-03-31T04:08:10.941Z,8.48
2019-03-31T04:11:06.174Z,8.80
2019-03-31T04:13:33.799Z,7.65
2019-03-31T04:16:01.701Z,8.28
2019-03-31T04:18:29.650Z,7.55
2019-03-31T04:20:57.240Z,7.35
2019-03-31T04:23:25.211Z,7.15
2019-03-31T04:25:53.115Z,7.17
2019-03-31T04:28:20.572Z,8.60
2019-03-31T04:30:47.994Z,7.40
2019-03-31T04:33:16.133Z,8.35
2019-03-31T04:35:44.059Z,7.65
2019-03-31T04:38:12.042Z,7.92
2019-03-31T04:40:39.586Z,7.50
2019-03-31T04:43:07.133Z,8.10
2019-03-31T04:45:34.978Z,7.42
2019-03-31T04:48:02.782Z,9.05
2019-03-31T04:50:30.594Z,8.40
2019-03-31T04:52:58.299Z,9.50
2019-03-31T04:55:26.583Z,8.18
2019-03-31T04:57:54.160Z,8.45
2019-03-31T05:00:22.023Z,7.90
2019-03-31T05:02:49.675Z,8.25
2019-03-31T05:05:17.636Z,8.98
2019-03-31T05:07:45.588Z,8.48
2019-03-31T05:10:13.123Z,7.92
2019-03-31T05:12:41.109Z,7.97
2019-03-31T05:15:08.702Z,10.43
2019-03-31T05:17:36.546Z,8.65
2019-03-31T05:20:04.736Z,8.50
2019-03-31T05:22:32.437Z,9.70
2019-03-31T05:25:00.385Z,9.40
2019-03-31T05:27:28.154Z,7.83
2019-03-31T05:29:55.858Z,8.85
2019-03-31T05:32:23.601Z,9.10
2019-03-31T05:34:51.311Z,8.98
2019-03-31T05:37:18.846Z,11.25
2019-03-31T05:39:46.536Z,8.58
2019-03-31T05:44:49.479Z,8.20
2019-03-31T05:47:17.255Z,7.72
2019-03-31T05:49:47.936Z,8.25
2019-03-31T05:52:15.456Z,7.37
2019-03-31T05:54:44.494Z,9.00
2019-03-31T05:57:12.214Z,8.75
2019-03-31T05:59:40.892Z,8.65
2019-03-31T06:02:08.603Z,8.23
2019-03-31T06:04:36.827Z,8.03
2019-03-31T06:07:05.423Z,8.20
2019-03-31T06:09:33.420Z,9.40
2019-03-31T06:12:00.966Z,8.10
2019-03-31T06:14:28.593Z,9.53
2019-03-31T06:16:56.489Z,8.87
2019-03-31T06:19:24.371Z,9.00
2019-03-31T06:21:52.012Z,9.20
2019-03-31T06:24:19.711Z,9.50
2019-03-31T06:26:47.667Z,10.93
2019-03-31T06:29:15.696Z,10.50
2019-03-31T06:31:43.303Z,9.77
2019-03-31T06:34:11.051Z,10.93
2019-03-31T06:36:38.834Z,11.30
2019-03-31T06:39:06.508Z,10.37
2019-03-31T06:41:34.092Z,10.93
2019-03-31T06:44:02.039Z,11.17
2019-03-31T06:46:29.666Z,10.13
2019-03-31T06:48:57.404Z,11.10
2019-03-31T06:51:25.358Z,12.87
2019-03-31T06:53:53.527Z,10.10
2019-03-31T06:56:21.288Z,10.03
2019-03-31T06:58:49.490Z,10.27
2019-03-31T07:01:17.339Z,12.00
2019-03-31T07:03:45.475Z,11.43
2019-03-31T07:06:13.454Z,11.70
2019-03-31T07:08:41.356Z,10.20
2019-03-31T07:11:09.194Z,11.10
2019-03-31T07:13:37.066Z,11.23
2019-03-31T07:16:04.967Z,10.80
2019-03-31T07:18:32.639Z,11.30
2019-03-31T07:21:00.158Z,10.97
2019-03-31T07:23:28.210Z,12.60
2019-03-31T07:25:56.013Z,11.27
2019-03-31T07:28:23.854Z,12.87
2019-03-31T07:30:51.589Z,12.17
2019-03-31T07:33:19.123Z,11.77
2019-03-31T07:35:46.823Z,11.67
2019-03-31T07:38:14.856Z,12.43
2019-03-31T07:40:42.600Z,10.77
2019-03-31T07:43:11.004Z,14.20
2019-03-31T07:45:38.937Z,12.77
2019-03-31T07:48:08.233Z,12.60
2019-03-31T07:50:39.406Z,11.17
2019-03-31T07:53:07.198Z,11.37
2019-03-31T07:55:34.974Z,11.13
2019-03-31T07:58:02.946Z,10.70
2019-03-31T08:00:30.790Z,11.30
2019-03-31T08:03:00.311Z,11.27
2019-03-31T08:05:33.330Z,12.90
2019-03-31T08:07:58.004Z,11.67
2019-03-31T08:10:26.103Z,11.47
2019-03-31T08:12:53.638Z,10.90
2019-03-31T08:15:21.658Z,10.20
2019-03-31T08:17:49.455Z,13.00
2019-03-31T08:20:18.298Z,10.03
2019-03-31T08:22:46.289Z,11.67
2019-03-31T08:25:14.735Z,10.30
2019-03-31T08:27:42.719Z,11.77
2019-03-31T08:30:11.746Z,11.80
2019-03-31T08:32:39.630Z,9.77
2019-03-31T08:35:08.501Z,10.97
2019-03-31T08:37:36.452Z,11.30
2019-03-31T08:40:04.513Z,11.70
2019-03-31T08:42:32.251Z,12.37
2019-03-31T08:45:00.352Z,12.53
2019-03-31T08:47:28.387Z,12.17
2019-03-31T08:49:56.135Z,11.03
2019-03-31T08:52:23.924Z,12.83
2019-03-31T08:54:51.664Z,11.03
2019-03-31T08:57:19.711Z,11.57
2019-03-31T08:59:47.216Z,11.53
2019-03-31T09:02:32.656Z,10.93
2019-03-31T09:05:00.527Z,11.40
2019-03-31T09:07:28.826Z,11.60
2019-03-31T09:09:56.982Z,12.33
2019-03-31T09:12:25.075Z,11.93
2019-03-31T09:14:52.678Z,11.10
2019-03-31T09:17:22.407Z,11.17
2019-03-31T09:19:51.508Z,10.97
2019-03-31T09:22:19.127Z,10.77
2019-03-31T09:24:47.184Z,11.40
2019-03-31T09:27:15.097Z,10.60
2019-03-31T09:29:43.420Z,12.60
2019-03-31T09:32:10.984Z,11.27
2019-03-31T09:34:38.957Z,10.90
2019-03-31T09:37:06.740Z,10.67
2019-03-31T09:39:34.339Z,10.60
2019-03-31T09:42:02.293Z,11.83
2019-03-31T09:44:30.351Z,12.07
2019-03-31T09:46:58.685Z,11.33
2019-03-31T09:49:26.453Z,11.80
2019-03-31T09:51:54.352Z,12.53
2019-03-31T09:54:22.282Z,12.83
2019-03-31T09:56:53.573Z,12.63
2019-03-31T09:59:21.455Z,12.10
2019-03-31T10:01:49.147Z,12.40
2019-03-31T10:04:17.567Z,13.87
2019-03-31T10:06:45.360Z,13.90
2019-03-31T10:09:13.742Z,14.00
2019-03-31T10:11:42.119Z,14.20
2019-03-31T10:14:10.017Z,12.80
2019-03-31T10:16:45.088Z,14.63
2019-03-31T10:19:13.047Z,13.60
2019-03-31T10:21:41.135Z,14.57
2019-03-31T10:24:08.772Z,15.07
2019-03-31T10:26:36.500Z,14.13
2019-03-31T10:29:04.266Z,13.13
2019-03-31T10:31:31.944Z,14.03
2019-03-31T10:33:59.981Z,16.13
2019-03-31T10:36:28.342Z,15.60
2019-03-31T10:38:56.245Z,14.33
2019-03-31T10:41:24.097Z,14.27
2019-03-31T10:43:51.950Z,15.63
2019-03-31T10:46:20.563Z,15.33
2019-03-31T10:48:48.352Z,14.97
2019-03-31T10:51:17.116Z,15.93
2019-03-31T10:53:44.951Z,16.40
2019-03-31T10:56:13.018Z,14.87
2019-03-31T10:58:41.375Z,16.50
2019-03-31T11:01:09.071Z,15.87
2019-03-31T11:03:36.697Z,14.77
2019-03-31T11:06:04.979Z,16.50
2019-03-31T11:08:33.100Z,18.10
2019-03-31T11:11:00.866Z,16.57
2019-03-31T11:13:28.822Z,16.37
2019-03-31T11:15:57.625Z,16.23
2019-03-31T11:18:25.883Z,14.50
2019-03-31T11:20:53.646Z,15.00
2019-03-31T11:23:23.140Z,15.97
2019-03-31T11:25:50.698Z,16.17
2019-03-31T11:28:18.124Z,14.57
2019-03-31T11:30:46.185Z,15.03
2019-03-31T11:33:13.979Z,15.77
2019-03-31T11:35:41.538Z,16.90
2019-03-31T11:38:10.571Z,16.87
2019-03-31T11:40:38.046Z,14.87
2019-03-31T11:43:05.872Z,16.10
2019-03-31T11:45:33.662Z,15.10
2019-03-31T11:48:01.283Z,16.20
2019-03-31T11:50:29.226Z,15.10
2019-03-31T11:52:57.144Z,16.20
2019-03-31T11:55:25.099Z,15.57
2019-03-31T11:57:53.228Z,15.50
2019-03-31T12:00:21.271Z,16.50
2019-03-31T12:02:48.827Z,15.60
2019-03-31T12:05:17.186Z,14.37
2019-03-31T12:07:47.231Z,14.37
2019-03-31T12:10:15.442Z,14.23
2019-03-31T12:12:44.327Z,14.43
2019-03-31T12:15:12.171Z,15.57
2019-03-31T12:17:40.190Z,14.60
2019-03-31T12:20:09.179Z,11.60
2019-03-31T12:22:36.800Z,14.83
2019-03-31T12:25:05.084Z,16.50
2019-03-31T12:27:32.736Z,14.57
2019-03-31T12:30:00.629Z,15.30
2019-03-31T12:32:28.391Z,12.67
2019-03-31T12:34:56.233Z,12.60
2019-03-31T12:37:24.077Z,13.80
2019-03-31T12:39:51.547Z,12.13
2019-03-31T12:42:20.523Z,14.50
2019-03-31T12:44:49.197Z,13.47
2019-03-31T12:47:17.167Z,13.20
2019-03-31T12:49:45.472Z,11.57
2019-03-31T12:52:13.421Z,10.57
2019-03-31T12:54:41.409Z,10.67
2019-03-31T12:57:09.671Z,7.80
2019-03-31T12:59:37.575Z,9.87
2019-03-31T13:02:08.645Z,10.07
2019-03-31T13:04:36.826Z,10.40
2019-03-31T13:07:04.433Z,10.40
2019-03-31T13:09:32.348Z,11.17
2019-03-31T13:11:59.906Z,11.50
2019-03-31T13:14:28.183Z,10.73
2019-03-31T13:16:56.103Z,11.17
2019-03-31T13:19:23.668Z,10.90
2019-03-31T13:21:51.330Z,12.80
2019-03-31T13:24:19.154Z,12.83
2019-03-31T13:26:47.275Z,11.83
2019-03-31T13:29:15.215Z,14.30
2019-03-31T13:31:43.413Z,11.30
2019-03-31T13:34:12.202Z,10.83
2019-03-31T13:36:39.988Z,11.90
2019-03-31T13:39:07.994Z,12.33
2019-03-31T13:41:35.580Z,11.70
2019-03-31T13:44:03.316Z,11.47
2019-03-31T13:46:31.392Z,13.03
2019-03-31T13:48:59.364Z,11.30
2019-03-31T13:51:26.974Z,13.10
2019-03-31T13:53:54.452Z,11.77
2019-03-31T13:56:23.154Z,10.50
2019-03-31T13:58:52.335Z,11.27
2019-03-31T14:01:20.355Z,10.17
2019-03-31T14:03:48.352Z,10.90
2019-03-31T14:06:19.772Z,10.40
2019-03-31T14:08:48.272Z,10.40
2019-03-31T14:11:16.008Z,9.33
2019-03-31T14:13:43.768Z,10.53
2019-03-31T14:16:11.969Z,10.53
2019-03-31T14:18:40.088Z,10.30
2019-03-31T14:21:08.156Z,9.97
2019-03-31T14:23:36.355Z,10.47
2019-03-31T14:26:04.309Z,10.87
2019-03-31T14:28:32.242Z,11.43
2019-03-31T14:30:59.999Z,10.27
2019-03-31T14:33:27.702Z,12.80
2019-03-31T14:35:55.963Z,11.27
2019-03-31T14:38:23.746Z,12.40
2019-03-31T14:40:51.673Z,11.80
2019-03-31T14:43:19.704Z,11.73
2019-03-31T14:45:47.655Z,11.63
2019-03-31T14:48:15.408Z,10.10
2019-03-31T14:50:43.468Z,11.90
2019-03-31T14:53:11.613Z,11.23
2019-03-31T14:55:40.093Z,11.30
2019-03-31T14:58:08.603Z,10.50
2019-03-31T15:00:36.835Z,11.77
2019-03-31T15:03:05.002Z,11.90
2019-03-31T15:05:36.335Z,13.17
2019-03-31T15:08:05.232Z,12.53
2019-03-31T15:10:32.824Z,11.70
2019-03-31T15:13:00.633Z,11.30
2019-03-31T15:15:28.797Z,11.60
2019-03-31T15:17:56.283Z,15.20
2019-03-31T15:20:24.427Z,17.27
2019-03-31T15:22:52.434Z,22.37
2019-03-31T15:25:19.827Z,28.17
2019-03-31T15:27:47.326Z,27.37
2019-03-31T15:30:15.361Z,25.87
2019-03-31T15:32:42.973Z,27.77
2019-03-31T15:35:11.586Z,30.00
2019-03-31T15:37:39.779Z,30.63
2019-03-31T15:40:07.712Z,31.13
2019-03-31T15:42:35.615Z,33.97
2019-03-31T15:45:03.973Z,36.20
2019-03-31T15:47:31.667Z,33.50
2019-03-31T15:49:59.945Z,34.50
2019-03-31T15:52:27.720Z,34.73
2019-03-31T15:54:55.536Z,36.47
2019-03-31T15:57:23.219Z,36.07
2019-03-31T15:59:51.050Z,35.50
2019-03-31T16:02:19.577Z,34.77
2019-03-31T16:04:47.710Z,36.13
2019-03-31T16:07:16.049Z,37.23
2019-03-31T16:09:43.698Z,37.10
2019-03-31T16:12:11.142Z,43.33
2019-03-31T16:14:38.472Z,37.57
2019-03-31T16:17:05.987Z,38.10
2019-03-31T16:19:33.386Z,38.43
2019-03-31T16:22:00.595Z,37.17
2019-03-31T16:24:36.589Z,38.07
2019-03-31T16:27:04.019Z,36.60
2019-03-31T16:29:31.477Z,38.13
2019-03-31T16:31:59.030Z,41.77
2019-03-31T16:34:26.177Z,43.73
2019-03-31T16:36:53.581Z,36.10
2019-03-31T16:39:20.467Z,40.53
2019-03-31T16:41:47.879Z,37.43
2019-03-31T16:44:15.111Z,35.60
2019-03-31T16:46:42.600Z,36.77
2019-03-31T16:49:09.691Z,37.40
2019-03-31T16:51:37.074Z,37.67
2019-03-31T16:54:04.929Z,35.30
2019-03-31T16:56:32.237Z,29.83
2019-03-31T16:58:59.494Z,32.20
2019-03-31T17:01:26.853Z,33.03
2019-03-31T17:03:53.773Z,31.57
2019-03-31T17:06:20.976Z,31.90
2019-03-31T17:08:48.409Z,27.87
2019-03-31T17:11:16.088Z,32.47
2019-03-31T17:13:43.400Z,29.37
2019-03-31T17:16:10.589Z,28.23
2019-03-31T17:18:37.883Z,28.77
2019-03-31T17:21:06.040Z,27.47
2019-03-31T17:23:33.142Z,27.03
2019-03-31T17:26:00.417Z,31.83
2019-03-31T17:28:27.444Z,26.37
2019-03-31T17:30:54.577Z,28.93
2019-03-31T17:33:21.648Z,26.80
2019-03-31T17:35:48.868Z,27.87
2019-03-31T17:38:16.412Z,26.03
2019-03-31T17:40:43.273Z,26.20
2019-03-31T17:43:10.847Z,24.07
2019-03-31T17:45:38.366Z,23.00
2019-03-31T17:48:06.023Z,22.93
2019-03-31T17:50:34.875Z,26.60
2019-03-31T17:53:03.899Z,27.87
2019-03-31T17:55:31.894Z,18.50
2019-03-31T17:57:58.925Z,26.37
2019-03-31T18:00:26.111Z,23.73
2019-03-31T18:02:53.320Z,21.43
2019-03-31T18:05:23.531Z,17.87
2019-03-31T18:07:50.667Z,19.13
2019-03-31T18:10:21.300Z,23.33
2019-03-31T18:12:47.479Z,19.43
2019-03-31T18:15:14.625Z,18.07
2019-03-31T18:17:42.090Z,18.17
2019-03-31T18:20:09.603Z,17.17
2019-03-31T18:22:37.327Z,17.37
2019-03-31T18:25:05.183Z,17.77
2019-03-31T18:27:32.298Z,17.60
2019-03-31T18:29:59.366Z,19.83
2019-03-31T18:32:26.624Z,17.10
2019-03-31T18:34:57.506Z,18.17
2019-03-31T18:37:24.548Z,17.77
2019-03-31T18:39:51.817Z,19.60
2019-03-31T18:42:19.633Z,18.37
2019-03-31T18:44:47.396Z,17.93
2019-03-31T18:47:15.016Z,17.53
2019-03-31T18:49:42.578Z,17.30
2019-03-31T18:52:09.773Z,19.70
2019-03-31T18:55:11.388Z,17.93
2019-03-31T18:57:45.048Z,19.40
2019-03-31T19:00:31.114Z,15.77
2019-03-31T19:03:12.682Z,15.80
2019-03-31T19:05:49.152Z,17.70
2019-03-31T19:08:33.307Z,17.77
2019-03-31T19:11:15.048Z,16.57
2019-03-31T19:14:00.500Z,14.17
2019-03-31T19:16:46.046Z,16.30
2019-03-31T19:19:27.163Z,17.73
2019-03-31T19:22:19.361Z,16.70
2019-03-31T19:24:59.003Z,14.40
2019-03-31T19:27:33.045Z,14.10
2019-03-31T19:30:10.767Z,16.00
2019-03-31T19:32:56.245Z,14.23
2019-03-31T19:35:33.265Z,16.33
2019-03-31T19:38:13.885Z,15.67
2019-03-31T19:40:47.951Z,15.00
2019-03-31T19:43:22.133Z,14.73
2019-03-31T19:46:09.255Z,17.13
2019-03-31T19:48:54.876Z,13.17
2019-03-31T19:51:41.888Z,16.90
2019-03-31T19:54:31.678Z,15.30
2019-03-31T19:57:17.052Z,16.43
2019-03-31T20:00:13.162Z,16.73
2019-03-31T20:02:57.470Z,13.80
2019-03-31T20:05:36.015Z,14.07
2019-03-31T20:08:13.730Z,13.80
2019-03-31T20:11:03.216Z,13.03
2019-03-31T20:13:49.863Z,12.30
2019-03-31T20:16:23.025Z,14.90
2019-03-31T20:19:08.600Z,13.73
2019-03-31T20:21:42.107Z,13.47
2019-03-31T20:24:25.705Z,15.20
2019-03-31T20:27:06.507Z,16.40
2019-03-31T20:29:54.068Z,12.90
2019-03-31T20:32:59.292Z,13.03
2019-03-31T20:35:40.723Z,12.53
2019-03-31T20:38:23.511Z,14.07
2019-03-31T20:41:03.229Z,13.07
2019-03-31T20:43:53.139Z,14.40
2019-03-31T20:46:21.897Z,14.27
2019-03-31T20:48:49.633Z,16.10
2019-03-31T20:51:17.110Z,13.57
2019-03-31T20:53:44.036Z,14.17
2019-03-31T20:56:11.691Z,15.80
2019-03-31T20:58:39.079Z,18.63
2019-03-31T21:01:09.933Z,14.27
2019-03-31T21:03:37.040Z,14.20
2019-03-31T21:06:04.294Z,14.40
2019-03-31T21:08:31.438Z,12.93
2019-03-31T21:10:58.845Z,15.47
2019-03-31T21:13:26.066Z,14.40
2019-03-31T21:15:53.435Z,13.73
2019-03-31T21:18:20.799Z,13.67
2019-03-31T21:20:48.060Z,17.57
2019-03-31T21:23:15.373Z,16.53
2019-03-31T21:25:42.189Z,15.80
2019-03-31T21:28:09.441Z,14.57
2019-03-31T21:30:36.849Z,12.93
2019-03-31T21:33:04.021Z,15.37
2019-03-31T21:35:31.262Z,16.57
2019-03-31T21:37:58.387Z,14.80
2019-03-31T21:40:26.267Z,17.07
2019-03-31T21:42:53.220Z,16.80
2019-03-31T21:45:20.914Z,14.07
2019-03-31T21:47:48.226Z,17.23
2019-03-31T21:50:15.574Z,17.93
2019-03-31T21:52:42.628Z,13.97
2019-03-31T21:55:09.840Z,12.13
2019-03-31T21:57:37.760Z,14.30
2019-03-31T22:00:05.625Z,14.10
2019-03-31T22:02:34.710Z,16.80
2019-03-31T22:05:02.432Z,14.43
2019-03-31T22:07:29.907Z,13.50
2019-03-31T22:09:57.140Z,15.63
2019-03-31T22:12:24.341Z,12.23
2019-03-31T22:14:51.723Z,16.63
2019-03-31T22:17:18.932Z,14.10
2019-03-31T22:19:46.533Z,13.63
2019-03-31T22:22:13.580Z,15.73
2019-03-31T22:24:40.785Z,12.80
2019-03-31T22:27:07.986Z,15.50
2019-03-31T22:29:35.008Z,12.70
2019-03-31T22:32:01.859Z,13.40
2019-03-31T22:34:29.176Z,17.13
2019-03-31T22:36:56.522Z,14.73
2019-03-31T22:39:23.419Z,14.57
2019-03-31T22:41:50.360Z,13.23
2019-03-31T22:44:17.932Z,12.30
2019-03-31T22:46:54.049Z,15.33
2019-03-31T22:49:14.645Z,18.53
2019-03-31T22:51:42.808Z,14.53
2019-03-31T22:54:09.792Z,17.10
2019-03-31T22:56:37.077Z,17.90
2019-03-31T22:59:04.609Z,14.17
2019-03-31T23:01:31.903Z,15.03
2019-03-31T23:03:59.414Z,17.80
2019-03-31T23:06:27.628Z,21.13
2019-03-31T23:08:56.433Z,15.10
2019-03-31T23:11:23.613Z,15.50
2019-03-31T23:13:50.748Z,16.50
2019-03-31T23:16:18.422Z,14.60
2019-03-31T23:18:48.978Z,16.07
2019-03-31T23:21:16.506Z,15.37
2019-03-31T23:23:43.831Z,15.90
2019-03-31T23:26:11.023Z,20.23
2019-03-31T23:28:47.156Z,17.40
2019-03-31T23:31:15.479Z,19.83
2019-03-31T23:33:42.490Z,16.53
2019-03-31T23:36:09.671Z,17.30
2019-03-31T23:38:37.073Z,19.13
2019-03-31T23:41:04.221Z,18.37
2019-03-31T23:43:31.250Z,19.73
2019-03-31T23:45:59.350Z,18.63
2019-03-31T23:48:26.845Z,15.50
2019-03-31T23:50:54.297Z,16.90
2019-03-31T23:53:21.410Z,18.33
2019-03-31T23:55:48.514Z,18.63
2019-03-31T23:58:15.412Z,18.60
